aviador You're here:

KVOK Decoded Metar

VOLK/CAMP DOUGLA in WI, USA
Report Time2018-07-22 23:56:00
UTC Time2018-07-23 00:18:15
Flight Rules vfr VFR
Wind310° at 04 kt
W.Decomp.*RWY 27: 3.1 kt HW 2.6 kt RCW
W.Rank310° ranks 5
Current wind is below 310° avg. (8.4)
Visibility9999 m
Phenomena:N/A
Clouds:Few 070 Hf
Expected CloudBase > 2,000 ft AGL from Temp-Dew spread
CeilingNone
Temp25°C (ISA +12)
Dew Point20°C (74% RH)
QNH1016 hPa
Density Alt2,487 ft
Elevation909 ft
Report Wrong Elevation
Raw Report
KVOK 222356Z AUTO 31004KT 10SM FEW070 25/20 A2999 RMK AO2 SLP155
T02480198 10266 20228 50001=

Extra information for KVOK:More info

Metar Taf Metar & Taf Last 4 Metars F.Rules Stats Wind Profile Meteogram Temp Stats Airport Information Weather charts Add Link Nearby VenuesMetar ALERT Operation Metar Decoded Social comments

AIRNAV info for KVOK